createdAt,value
2023-10-02T00:01:48.575Z,3.83
2023-10-02T00:06:43.265Z,3.80
2023-10-02T00:11:40.913Z,3.50
2023-10-02T00:16:34.256Z,3.97
2023-10-02T00:21:28.329Z,3.45
2023-10-02T00:26:24.075Z,3.47
2023-10-02T00:31:34.246Z,3.80
2023-10-02T00:36:27.651Z,3.17
2023-10-02T00:41:23.121Z,3.10
2023-10-02T00:46:25.014Z,3.25
2023-10-02T00:51:18.588Z,3.13
2023-10-02T00:56:22.903Z,3.22
2023-10-02T01:01:20.820Z,3.10
2023-10-02T01:06:14.198Z,3.38
2023-10-02T01:11:08.395Z,3.33
2023-10-02T01:16:05.006Z,3.33
2023-10-02T01:21:01.798Z,3.13
2023-10-02T01:25:59.399Z,3.63
2023-10-02T01:30:52.842Z,3.42
2023-10-02T01:35:50.775Z,3.42
2023-10-02T01:40:44.941Z,2.75
2023-10-02T01:45:43.548Z,2.88
2023-10-02T01:50:37.822Z,3.15
2023-10-02T01:55:31.506Z,2.85
2023-10-02T02:00:25.662Z,3.58
2023-10-02T02:05:20.352Z,3.00
2023-10-02T02:10:13.580Z,3.10
2023-10-02T02:15:07.826Z,3.22
2023-10-02T02:20:11.867Z,3.13
2023-10-02T02:25:07.269Z,2.97
2023-10-02T02:30:01.951Z,3.25
2023-10-02T02:35:02.632Z,2.85
2023-10-02T02:40:16.036Z,2.72
2023-10-02T02:45:26.032Z,3.25
2023-10-02T02:50:26.421Z,2.90
2023-10-02T02:55:24.155Z,2.90
2023-10-02T03:00:33.230Z,3.03
2023-10-02T03:05:39.357Z,2.87
2023-10-02T03:10:38.340Z,3.35
2023-10-02T03:15:48.014Z,3.20
2023-10-02T03:20:44.624Z,3.38
2023-10-02T03:25:43.409Z,3.17
2023-10-02T03:30:40.279Z,3.53
2023-10-02T03:35:40.683Z,3.47
2023-10-02T03:40:33.948Z,3.60
2023-10-02T03:45:40.236Z,3.25
2023-10-02T03:50:38.642Z,3.10
2023-10-02T03:55:34.961Z,3.65
2023-10-02T04:00:29.435Z,3.42
2023-10-02T04:05:34.317Z,3.60
2023-10-02T04:10:49.705Z,3.78
2023-10-02T04:15:45.305Z,3.22
2023-10-02T04:20:38.752Z,3.97
2023-10-02T04:25:36.680Z,3.17
2023-10-02T04:30:29.968Z,3.55
2023-10-02T04:35:40.758Z,3.80
2023-10-02T04:40:45.893Z,3.95
2023-10-02T04:45:39.511Z,5.47
2023-10-02T04:50:41.254Z,4.25
2023-10-02T04:55:43.685Z,3.38
2023-10-02T05:00:39.416Z,3.20
2023-10-02T05:05:35.885Z,3.22
2023-10-02T05:10:29.386Z,3.28
2023-10-02T05:15:24.299Z,3.80
2023-10-02T05:20:18.484Z,4.28
2023-10-02T05:25:11.904Z,4.03
2023-10-02T05:30:13.799Z,3.97
2023-10-02T05:35:19.672Z,3.38
2023-10-02T05:40:31.688Z,3.40
2023-10-02T05:45:39.237Z,3.58
2023-10-02T05:50:34.419Z,4.03
2023-10-02T05:55:27.721Z,3.63
2023-10-02T06:00:21.833Z,4.45
2023-10-02T06:05:15.206Z,4.15
2023-10-02T06:10:19.723Z,4.13
2023-10-02T06:15:37.829Z,3.90
2023-10-02T06:20:31.064Z,3.90
2023-10-02T06:25:25.742Z,3.60
2023-10-02T06:30:19.359Z,4.43
2023-10-02T06:35:13.737Z,3.58
2023-10-02T06:40:15.338Z,3.60
2023-10-02T06:45:16.933Z,4.28
2023-10-02T06:50:28.914Z,4.57
2023-10-02T06:55:26.227Z,3.97
2023-10-02T07:00:21.712Z,3.72
2023-10-02T07:05:15.131Z,4.45
2023-10-02T07:10:10.036Z,3.80
2023-10-02T07:15:14.571Z,3.60
2023-10-02T07:20:12.988Z,3.90
2023-10-02T07:25:06.698Z,3.85
2023-10-02T07:30:01.159Z,3.85
2023-10-02T07:34:55.971Z,3.53
2023-10-02T07:39:57.691Z,4.07
2023-10-02T07:44:52.191Z,3.60
2023-10-02T07:49:48.002Z,4.57
2023-10-02T07:54:47.186Z,3.78
2023-10-02T07:59:45.163Z,3.20
2023-10-02T08:04:48.961Z,3.22
2023-10-02T08:09:48.701Z,4.28
2023-10-02T08:14:44.105Z,3.65
2023-10-02T08:19:38.567Z,3.90
2023-10-02T08:24:31.973Z,3.40
2023-10-02T08:29:28.005Z,4.00
2023-10-02T08:34:25.921Z,3.53
2023-10-02T08:39:24.234Z,3.88
2023-10-02T08:44:17.916Z,3.17
2023-10-02T08:49:13.155Z,3.95
2023-10-02T08:54:08.456Z,3.75
2023-10-02T08:59:19.258Z,3.67
2023-10-02T09:04:24.426Z,3.90
2023-10-02T09:09:29.114Z,3.55
2023-10-02T09:14:24.525Z,4.15
2023-10-02T09:19:32.033Z,3.78
2023-10-02T09:24:26.719Z,3.60
2023-10-02T09:29:20.578Z,3.53
2023-10-02T09:34:38.396Z,4.07
2023-10-02T09:39:37.888Z,3.58
2023-10-02T09:44:31.504Z,3.25
2023-10-02T09:49:31.953Z,3.70
2023-10-02T09:54:33.494Z,3.35
2023-10-02T09:59:38.989Z,3.55
2023-10-02T10:05:28.198Z,3.67
2023-10-02T10:10:30.116Z,3.60
2023-10-02T10:15:32.996Z,4.22
2023-10-02T10:20:29.653Z,3.15
2023-10-02T10:25:43.996Z,3.90
2023-10-02T10:30:45.880Z,3.30
2023-10-02T10:35:42.589Z,3.13
2023-10-02T10:40:52.000Z,3.58
2023-10-02T10:45:49.494Z,3.70
2023-10-02T10:50:49.891Z,3.00
2023-10-02T10:55:43.564Z,3.38
2023-10-02T11:00:41.931Z,3.58
2023-10-02T11:05:37.984Z,3.80
2023-10-02T11:10:33.160Z,3.47
2023-10-02T11:15:44.952Z,3.13
2023-10-02T11:20:39.747Z,3.28
2023-10-02T11:25:35.603Z,3.20
2023-10-02T11:30:35.122Z,3.70
2023-10-02T11:35:30.873Z,3.33
2023-10-02T11:40:29.730Z,3.67
2023-10-02T11:45:23.333Z,3.47
2023-10-02T11:50:17.409Z,3.33
2023-10-02T11:55:11.616Z,3.10
2023-10-02T12:00:10.196Z,3.55
2023-10-02T12:05:08.966Z,3.40
2023-10-02T12:10:02.606Z,4.22
2023-10-02T12:14:57.258Z,2.97
2023-10-02T12:19:53.118Z,3.72
2023-10-02T12:24:47.718Z,3.38
2023-10-02T12:29:43.041Z,3.88
2023-10-02T12:34:36.326Z,3.42
2023-10-02T12:39:32.050Z,3.67
2023-10-02T12:44:25.525Z,3.45
2023-10-02T12:49:21.353Z,3.65
2023-10-02T12:54:14.999Z,3.50
2023-10-02T12:59:12.991Z,3.50
2023-10-02T13:04:07.825Z,3.50
2023-10-02T13:09:10.102Z,4.15
2023-10-02T13:14:03.476Z,3.83
2023-10-02T13:18:58.251Z,4.38
2023-10-02T13:23:52.397Z,4.03
2023-10-02T13:28:53.440Z,3.95
2023-10-02T13:33:55.124Z,4.00
2023-10-02T13:38:52.654Z,4.53
2023-10-02T13:43:46.328Z,5.70
2023-10-02T13:48:40.222Z,4.40
2023-10-02T13:53:34.449Z,3.72
2023-10-02T13:58:29.718Z,4.07
2023-10-02T14:03:23.420Z,3.92
2023-10-02T14:08:16.923Z,3.78
2023-10-02T14:13:10.328Z,3.80
2023-10-02T14:18:05.597Z,3.13
2023-10-02T14:22:58.907Z,3.33
2023-10-02T14:27:53.347Z,3.35
2023-10-02T14:32:48.994Z,3.80
2023-10-02T14:37:44.749Z,4.13
2023-10-02T14:42:38.294Z,4.72
2023-10-02T14:47:32.814Z,4.18
2023-10-02T14:52:26.226Z,3.95
2023-10-02T14:57:21.322Z,5.72
2023-10-02T15:02:15.803Z,4.00
2023-10-02T15:07:09.072Z,3.92
2023-10-02T15:12:02.688Z,4.20
2023-10-02T15:16:57.460Z,3.97
2023-10-02T15:21:52.887Z,4.13
2023-10-02T15:26:46.748Z,4.25
2023-10-02T15:31:40.154Z,4.45
2023-10-02T15:36:34.866Z,4.25
2023-10-02T15:41:29.835Z,4.85
2023-10-02T15:46:23.118Z,4.72
2023-10-02T15:51:18.717Z,4.40
2023-10-02T15:56:17.914Z,4.43
2023-10-02T16:01:18.170Z,4.90
2023-10-02T16:06:11.401Z,5.32
2023-10-02T16:11:04.918Z,5.30
2023-10-02T16:15:59.980Z,5.45
2023-10-02T16:20:53.274Z,4.97
2023-10-02T16:25:46.589Z,5.60
2023-10-02T16:30:40.050Z,5.25
2023-10-02T16:35:34.923Z,5.43
2023-10-02T16:40:28.913Z,5.63
2023-10-02T16:45:22.746Z,5.70
2023-10-02T16:50:17.538Z,4.68
2023-10-02T16:55:17.799Z,5.95
2023-10-02T17:00:14.609Z,5.80
2023-10-02T17:05:08.663Z,5.82
2023-10-02T17:10:01.954Z,5.97
2023-10-02T17:14:56.623Z,5.60
2023-10-02T17:19:50.388Z,6.55
2023-10-02T17:24:43.927Z,6.63
2023-10-02T17:29:37.331Z,6.03
2023-10-02T17:34:33.967Z,6.47
2023-10-02T17:39:27.478Z,6.60
2023-10-02T17:44:21.708Z,6.50
2023-10-02T17:49:17.254Z,6.72
2023-10-02T17:54:12.807Z,6.18
2023-10-02T17:59:06.175Z,6.10
2023-10-02T18:03:59.636Z,6.22
2023-10-02T18:08:52.927Z,7.55
2023-10-02T18:13:48.203Z,8.43
2023-10-02T18:18:41.755Z,8.38
2023-10-02T18:23:36.925Z,7.32
2023-10-02T18:28:30.219Z,7.35
2023-10-02T18:33:24.865Z,6.97
2023-10-02T18:38:19.066Z,6.57
2023-10-02T18:43:12.572Z,6.78
2023-10-02T18:48:08.017Z,7.30
2023-10-02T18:53:02.630Z,6.90
2023-10-02T18:57:55.881Z,9.07
2023-10-02T19:02:49.225Z,9.63
2023-10-02T19:07:43.221Z,11.55
2023-10-02T19:12:38.563Z,9.52
2023-10-02T19:17:31.961Z,7.30
2023-10-02T19:22:27.804Z,7.13
2023-10-02T19:27:21.074Z,8.82
2023-10-02T19:32:15.889Z,7.35
2023-10-02T19:37:09.104Z,5.90
2023-10-02T19:42:04.746Z,6.10
2023-10-02T19:47:00.529Z,6.78
2023-10-02T19:51:55.231Z,6.75
2023-10-02T19:56:48.602Z,5.75
2023-10-02T20:01:42.172Z,6.10
2023-10-02T20:06:37.484Z,5.18
2023-10-02T20:11:32.525Z,6.45
2023-10-02T20:16:25.773Z,5.80
2023-10-02T20:21:19.762Z,5.78
2023-10-02T20:26:13.378Z,5.93
2023-10-02T20:31:12.434Z,5.72
2023-10-02T20:36:07.785Z,7.20
2023-10-02T20:41:01.556Z,6.03
2023-10-02T20:45:55.080Z,6.40
2023-10-02T20:50:50.165Z,6.95
2023-10-02T20:55:43.574Z,8.13
2023-10-02T21:00:40.487Z,7.68
2023-10-02T21:05:34.311Z,7.53
2023-10-02T21:10:29.408Z,6.85
2023-10-02T21:15:22.757Z,6.10
2023-10-02T21:20:16.815Z,6.20
2023-10-02T21:25:11.263Z,6.30
2023-10-02T21:30:07.261Z,5.68
2023-10-02T21:35:02.531Z,5.60
2023-10-02T21:39:55.877Z,5.63
2023-10-02T21:44:49.578Z,5.55
2023-10-02T21:49:44.351Z,10.35
2023-10-02T21:54:38.822Z,4.70
2023-10-02T21:59:32.179Z,10.30
2023-10-02T22:04:25.471Z,8.65
2023-10-02T22:09:20.403Z,8.23
2023-10-02T22:14:17.229Z,7.75
2023-10-02T22:19:11.198Z,5.68
2023-10-02T22:24:06.160Z,4.72
2023-10-02T22:29:01.024Z,5.28
2023-10-02T22:33:55.317Z,4.90
2023-10-02T22:38:48.735Z,4.82
2023-10-02T22:43:42.632Z,4.63
2023-10-02T22:48:37.481Z,5.45
2023-10-02T22:53:33.105Z,5.20
2023-10-02T22:58:27.309Z,4.90
2023-10-02T23:03:20.811Z,5.60
2023-10-02T23:08:16.227Z,5.00
2023-10-02T23:13:09.504Z,4.70
2023-10-02T23:18:03.580Z,4.95
2023-10-02T23:22:56.959Z,5.55
2023-10-02T23:27:52.444Z,4.72
2023-10-02T23:32:46.102Z,4.97
2023-10-02T23:37:40.370Z,5.53
2023-10-02T23:42:33.578Z,5.45
2023-10-02T23:47:29.307Z,4.90
2023-10-02T23:52:24.982Z,4.90
2023-10-02T23:57:20.924Z,4.00
